Time;durP1;ratioP1;P1;durP2;ratioP2;P2;SDS_P1;SDS_P2;PMS_P1;PMS_P2;Temp;Humidity;BMP_temperature;BMP_pressure;BME280_temperature;BME280_humidity;BME280_pressure;Samples;Min_cycle;Max_cycle;Signal;HPM_P1;HPM_P2
2023/12/10 00:00:38;;;;;;;;;;;;;;;19.98;40.52;99406.81;2067051;28;6143;-68
2023/12/10 00:01:40;;;;;;;;;;;;;;;19.98;40.28;99412.56;2070861;28;1946;-68
2023/12/10 00:02:41;;;;;;;;;;;;;;;19.99;40.31;99396.78;2070954;28;1718;-68
2023/12/10 00:03:43;;;;;;;;;;;;;;;19.99;40.33;99407.53;2068912;28;1799;-68
2023/12/10 00:04:45;;;;;;;;;;;;;;;19.99;40.48;99402.50;2069759;28;1985;-68
2023/12/10 00:05:46;;;;;;;;;;;;;;;19.99;40.42;99407.53;2069075;28;2040;-68
2023/12/10 00:07:00;;;;;;;;;;;;;;;19.98;40.46;99406.81;2068008;28;1957;-68
2023/12/10 00:08:01;;;;;;;;;;;;;;;19.98;40.44;99409.69;2070631;28;2054;-67
2023/12/10 00:09:03;;;;;;;;;;;;;;;19.98;40.39;99412.56;2069265;28;2025;-68
2023/12/10 00:10:04;;;;;;;;;;;;;;;19.99;40.36;99408.25;2067845;28;1645;-68
2023/12/10 00:11:05;;;;;;;;;;;;;;;19.98;40.37;99415.44;2069683;28;1916;-68
2023/12/10 00:12:07;;;;;;;;;;;;;;;19.98;40.51;99406.09;2070529;28;1974;-68
2023/12/10 00:13:11;;;;;;;;;;;;;;;19.97;40.48;99411.09;2068564;28;1937;-68
2023/12/10 00:14:13;;;;;;;;;;;;;;;19.98;40.48;99406.81;2066510;28;1608;-68
2023/12/10 00:15:14;;;;;;;;;;;;;;;19.97;40.56;99411.09;2070206;28;1952;-68
2023/12/10 00:16:16;;;;;;;;;;;;;;;19.97;40.52;99410.34;2069558;28;2061;-68
2023/12/10 00:17:17;;;;;;;;;;;;;;;19.98;40.61;99412.56;2068613;28;2074;-68
2023/12/10 00:18:18;;;;;;;;;;;;;;;19.97;40.55;99408.22;2067260;28;1625;-68
2023/12/10 00:19:20;;;;;;;;;;;;;;;19.98;40.48;99424.06;2066120;28;1468;-68
2023/12/10 00:20:22;;;;;;;;;;;;;;;19.99;40.59;99407.53;2067629;28;2076;-68
2023/12/10 00:21:23;;;;;;;;;;;;;;;19.99;40.70;99413.28;2071074;28;1930;-68
2023/12/10 00:22:25;;;;;;;;;;;;;;;19.99;40.61;99419.75;2068353;28;1997;-67
2023/12/10 00:23:27;;;;;;;;;;;;;;;20.00;40.68;99409.00;2069938;28;1870;-68
2023/12/10 00:24:28;;;;;;;;;;;;;;;20.01;40.67;99414.06;2066944;28;2027;-68
2023/12/10 00:25:31;;;;;;;;;;;;;;;20.01;40.65;99411.19;2068484;28;2299;-68
2023/12/10 00:26:33;;;;;;;;;;;;;;;20.02;40.67;99412.66;2070055;28;1863;-68
2023/12/10 00:27:34;;;;;;;;;;;;;;;20.02;40.78;99417.66;2068403;28;1620;-68
2023/12/10 00:28:35;;;;;;;;;;;;;;;20.03;40.60;99407.66;2069094;28;2060;-68
2023/12/10 00:29:37;;;;;;;;;;;;;;;20.02;40.71;99411.91;2067776;28;1556;-68
2023/12/10 00:30:41;;;;;;;;;;;;;;;20.02;40.82;99412.66;2068041;28;6395;-68
2023/12/10 00:31:43;;;;;;;;;;;;;;;20.01;40.74;99416.94;2067532;28;1794;-68
2023/12/10 00:32:44;;;;;;;;;;;;;;;20.03;40.76;99414.13;2070584;28;1599;-68
2023/12/10 00:33:46;;;;;;;;;;;;;;;20.02;40.75;99412.66;2065081;28;1967;-68
2023/12/10 00:34:48;;;;;;;;;;;;;;;20.02;40.76;99411.91;2066377;28;2020;-68
2023/12/10 00:35:49;;;;;;;;;;;;;;;20.01;40.79;99408.31;2068451;28;1900;-68
2023/12/10 00:36:51;;;;;;;;;;;;;;;20.03;40.72;99413.38;2068045;28;1885;-68
2023/12/10 00:37:52;;;;;;;;;;;;;;;20.02;40.91;99406.91;2067378;28;1734;-68
2023/12/10 00:38:55;;;;;;;;;;;;;;;20.02;40.61;99415.53;2066133;28;1713;-68
2023/12/10 00:39:56;;;;;;;;;;;;;;;20.02;40.87;99406.16;2068983;28;2155;-68
2023/12/10 00:40:58;;;;;;;;;;;;;;;20.02;40.93;99409.78;2066439;28;1548;-68
2023/12/10 00:41:59;;;;;;;;;;;;;;;20.01;40.94;99405.44;2067732;28;2073;-68
2023/12/10 00:43:00;;;;;;;;;;;;;;;20.02;40.64;99409.78;2070353;28;1941;-68
2023/12/10 00:44:02;;;;;;;;;;;;;;;20.01;40.62;99405.44;2068418;28;2300;-68
2023/12/10 00:45:04;;;;;;;;;;;;;;;20.01;40.89;99405.44;2068159;28;1979;-68
2023/12/10 00:46:05;;;;;;;;;;;;;;;20.00;40.89;99409.75;2069440;28;1977;-68
2023/12/10 00:47:07;;;;;;;;;;;;;;;20.01;40.84;99398.97;2067963;28;2063;-68
2023/12/10 00:48:08;;;;;;;;;;;;;;;20.00;40.79;99406.88;2068116;28;1942;-68
2023/12/10 00:49:10;;;;;;;;;;;;;;;20.01;40.80;99413.34;2070317;28;1902;-68
2023/12/10 00:50:11;;;;;;;;;;;;;;;20.00;40.80;99406.88;2070352;28;2132;-68
2023/12/10 00:51:19;;;;;;;;;;;;;;;19.99;40.77;99402.50;2070864;28;1608;-68
2023/12/10 00:52:21;;;;;;;;;;;;;;;20.00;40.78;99397.53;2071351;28;2275;-68
2023/12/10 00:53:22;;;;;;;;;;;;;;;19.99;40.69;99402.50;2069444;28;1817;-68
2023/12/10 00:54:25;;;;;;;;;;;;;;;19.99;40.70;99385.28;2069598;28;1869;-68
2023/12/10 00:55:26;;;;;;;;;;;;;;;19.99;40.77;99391.03;2071957;28;1900;-68
2023/12/10 00:56:27;;;;;;;;;;;;;;;19.99;40.81;99391.03;2069901;28;1544;-68
2023/12/10 00:57:29;;;;;;;;;;;;;;;19.99;40.62;99396.78;2070740;28;1942;-68
2023/12/10 00:58:30;;;;;;;;;;;;;;;20.00;40.65;99391.78;2072024;28;1552;-68
2023/12/10 00:59:32;;;;;;;;;;;;;;;19.98;40.65;99383.81;2069689;28;1997;-68
2023/12/10 01:00:33;;;;;;;;;;;;;;;19.98;40.72;99386.69;2069372;28;5995;-68
2023/12/10 01:01:35;;;;;;;;;;;;;;;19.98;40.50;99380.94;2071733;28;1957;-68
2023/12/10 01:02:36;;;;;;;;;;;;;;;19.99;40.69;99391.03;2069905;28;2013;-68
2023/12/10 01:03:37;;;;;;;;;;;;;;;19.99;40.69;99381.69;2069690;28;1966;-68
2023/12/10 01:04:39;;;;;;;;;;;;;;;19.98;40.64;99378.09;2071509;28;1926;-68
2023/12/10 01:05:41;;;;;;;;;;;;;;;19.98;40.63;99392.44;2070860;28;1746;-68
2023/12/10 01:06:42;;;;;;;;;;;;;;;19.97;40.72;99382.34;2071783;28;1564;-68
2023/12/10 01:07:44;;;;;;;;;;;;;;;19.98;40.60;99391.72;2070671;28;1954;-68
2023/12/10 01:08:45;;;;;;;;;;;;;;;19.98;40.68;99394.59;2069656;28;1900;-68
2023/12/10 01:09:46;;;;;;;;;;;;;;;19.98;40.70;99388.84;2070040;28;1923;-68
2023/12/10 01:10:48;;;;;;;;;;;;;;;19.97;40.57;99393.84;2071439;28;1938;-68
2023/12/10 01:11:49;;;;;;;;;;;;;;;19.98;40.63;99389.56;2069010;28;1790;-68
2023/12/10 01:12:51;;;;;;;;;;;;;;;19.97;40.69;99396.72;2067886;28;2013;-68
2023/12/10 01:13:52;;;;;;;;;;;;;;;19.97;40.60;99390.25;2071560;28;1988;-68
2023/12/10 01:14:54;;;;;;;;;;;;;;;19.98;40.70;99389.56;2069461;28;2077;-68
2023/12/10 01:15:55;;;;;;;;;;;;;;;19.97;40.80;99396.00;2068683;28;1848;-68
2023/12/10 01:16:57;;;;;;;;;;;;;;;19.97;40.79;99388.09;2068106;28;1595;-68
2023/12/10 01:18:01;;;;;;;;;;;;;;;19.97;40.76;99393.84;2069838;28;1874;-68
2023/12/10 01:19:02;;;;;;;;;;;;;;;19.98;40.82;99388.84;2069903;28;1564;-68
2023/12/10 01:20:04;;;;;;;;;;;;;;;19.98;40.90;99401.06;2069820;28;2275;-69
2023/12/10 01:21:09;;;;;;;;;;;;;;;19.99;40.89;99393.16;2067847;28;1457;-68
2023/12/10 01:22:11;;;;;;;;;;;;;;;19.99;40.88;99396.78;2069559;28;2020;-68
2023/12/10 01:23:14;;;;;;;;;;;;;;;20.01;40.93;99399.69;2069560;28;1961;-68
2023/12/10 01:24:18;;;;;;;;;;;;;;;20.00;40.91;99398.25;2071793;28;1919;-66
2023/12/10 01:25:20;;;;;;;;;;;;;;;20.02;41.03;99401.16;2070746;28;2159;-68
2023/12/10 01:26:21;;;;;;;;;;;;;;;20.01;41.11;99405.44;2070539;28;1723;-68
2023/12/10 01:27:23;;;;;;;;;;;;;;;20.01;41.02;99405.44;2071094;28;1990;-68
2023/12/10 01:28:24;;;;;;;;;;;;;;;20.02;41.08;99409.03;2068743;28;1959;-68
2023/12/10 01:29:25;;;;;;;;;;;;;;;20.03;41.06;99408.38;2070716;28;2133;-68
2023/12/10 01:30:27;;;;;;;;;;;;;;;20.04;41.04;99420.59;2069678;28;6150;-69
2023/12/10 01:31:33;;;;;;;;;;;;;;;20.03;40.98;99419.88;2067651;28;1619;-68
2023/12/10 01:32:34;;;;;;;;;;;;;;;20.02;40.99;99424.16;2071964;28;1572;-68
2023/12/10 01:33:37;;;;;;;;;;;;;;;20.03;41.05;99419.88;2068284;28;2081;-67
2023/12/10 01:34:40;;;;;;;;;;;;;;;20.03;40.96;99413.38;2070943;28;1548;-68
2023/12/10 01:35:42;;;;;;;;;;;;;;;20.02;41.03;99424.16;2069134;28;1619;-68
2023/12/10 01:36:44;;;;;;;;;;;;;;;20.02;41.07;99423.41;2068320;28;1950;-68
2023/12/10 01:37:45;;;;;;;;;;;;;;;20.02;41.04;99423.41;2069657;28;2126;-68
2023/12/10 01:38:47;;;;;;;;;;;;;;;20.01;40.96;99425.56;2066613;28;1571;-68
2023/12/10 01:39:48;;;;;;;;;;;;;;;20.00;41.06;99424.09;2070346;28;1866;-68
2023/12/10 01:40:50;;;;;;;;;;;;;;;20.01;41.06;99430.56;2071383;28;1967;-68
2023/12/10 01:41:51;;;;;;;;;;;;;;;20.01;41.10;99424.81;2070325;28;1882;-68
2023/12/10 01:42:53;;;;;;;;;;;;;;;20.00;41.15;99421.22;2071759;28;1958;-68
2023/12/10 01:43:55;;;;;;;;;;;;;;;20.00;41.06;99415.47;2069585;28;2260;-68
2023/12/10 01:44:56;;;;;;;;;;;;;;;20.01;40.98;99434.16;2068751;28;1965;-68
2023/12/10 01:45:58;;;;;;;;;;;;;;;20.00;40.96;99426.25;2070224;28;2393;-68
2023/12/10 01:46:59;;;;;;;;;;;;;;;20.00;41.03;99432.72;2070883;28;1555;-68
2023/12/10 01:48:04;;;;;;;;;;;;;;;20.00;41.00;99426.97;2069327;28;1968;-68
2023/12/10 01:49:07;;;;;;;;;;;;;;;20.00;41.08;99426.97;2071041;28;2005;-68
2023/12/10 01:50:12;;;;;;;;;;;;;;;20.00;41.09;99426.25;2067059;28;1937;-68
2023/12/10 01:51:14;;;;;;;;;;;;;;;20.00;41.08;99426.25;2070750;28;2130;-68
2023/12/10 01:52:15;;;;;;;;;;;;;;;19.99;41.04;99431.25;2068337;28;1973;-68
2023/12/10 01:53:16;;;;;;;;;;;;;;;20.00;40.87;99434.88;2071195;28;1592;-68
2023/12/10 01:54:21;;;;;;;;;;;;;;;19.99;41.04;99431.25;2070789;28;1571;-68
2023/12/10 01:55:23;;;;;;;;;;;;;;;19.99;41.01;99431.25;2071291;28;2048;-68
2023/12/10 01:56:24;;;;;;;;;;;;;;;19.99;41.08;99424.78;2068403;28;2001;-68
2023/12/10 01:57:27;;;;;;;;;;;;;;;19.99;40.92;99428.38;2068233;28;2134;-69
2023/12/10 01:58:29;;;;;;;;;;;;;;;19.98;40.97;99435.53;2064346;28;1574;-69
2023/12/10 01:59:30;;;;;;;;;;;;;;;19.99;40.84;99431.25;2068846;28;2092;-66
2023/12/10 02:00:32;;;;;;;;;;;;;;;19.99;40.86;99428.38;2069012;28;5974;-68
2023/12/10 02:01:33;;;;;;;;;;;;;;;19.99;40.92;99421.91;2070708;28;1873;-68
2023/12/10 02:02:35;;;;;;;;;;;;;;;19.99;40.98;99424.78;2068819;28;1954;-68
2023/12/10 02:03:36;;;;;;;;;;;;;;;19.98;40.91;99424.06;2071826;28;1830;-68
2023/12/10 02:04:38;;;;;;;;;;;;;;;19.98;40.86;99423.31;2067965;28;1943;-67
2023/12/10 02:05:40;;;;;;;;;;;;;;;19.98;40.75;99429.78;2070847;28;1934;-68
2023/12/10 02:06:42;;;;;;;;;;;;;;;19.98;40.85;99426.94;2067392;28;1961;-68
2023/12/10 02:07:43;;;;;;;;;;;;;;;19.99;40.83;99430.53;2070529;28;1760;-68
2023/12/10 02:08:45;;;;;;;;;;;;;;;19.98;40.89;99431.94;2067672;28;1584;-68
2023/12/10 02:09:46;;;;;;;;;;;;;;;19.97;40.80;99434.06;2071922;28;1969;-68
2023/12/10 02:10:48;;;;;;;;;;;;;;;19.97;40.93;99439.81;2070334;28;1922;-68
2023/12/10 02:11:50;;;;;;;;;;;;;;;19.98;40.82;99435.53;2070710;28;1745;-68
2023/12/10 02:12:54;;;;;;;;;;;;;;;19.97;40.94;99441.97;2070018;28;1947;-68
2023/12/10 02:13:55;;;;;;;;;;;;;;;19.96;40.94;99438.38;2063496;28;2054;-68
2023/12/10 02:14:56;;;;;;;;;;;;;;;19.97;41.02;99436.94;2071138;28;1926;-68
2023/12/10 02:15:58;;;;;;;;;;;;;;;19.97;41.05;99436.22;2069292;28;1747;-68
2023/12/10 02:16:59;;;;;;;;;;;;;;;19.97;40.99;99436.94;2071643;28;1930;-68
2023/12/10 02:18:01;;;;;;;;;;;;;;;19.97;41.01;99434.06;2068481;28;2032;-68
2023/12/10 02:19:02;;;;;;;;;;;;;;;19.98;41.04;99432.66;2069855;28;2021;-68
2023/12/10 02:20:05;;;;;;;;;;;;;;;19.98;41.12;99429.78;2070313;28;1688;-68
2023/12/10 02:21:07;;;;;;;;;;;;;;;19.98;41.08;99426.94;2069221;28;2040;-68
2023/12/10 02:22:09;;;;;;;;;;;;;;;19.98;41.20;99435.53;2070955;28;1970;-68
2023/12/10 02:23:31;;;;;;;;;;;;;;;19.99;41.17;99427.66;2069008;28;2024;-68
2023/12/10 02:24:38;;;;;;;;;;;;;;;19.99;41.25;99428.38;2069249;28;1673;-68
2023/12/10 02:25:40;;;;;;;;;;;;;;;20.00;41.20;99429.84;2069324;28;2097;-68
2023/12/10 02:26:41;;;;;;;;;;;;;;;20.01;41.21;99439.91;2069360;28;1596;-67
2023/12/10 02:27:42;;;;;;;;;;;;;;;20.00;41.21;99434.88;2066192;28;1923;-68
2023/12/10 02:28:44;;;;;;;;;;;;;;;20.01;41.25;99428.44;2068855;28;2307;-68
2023/12/10 02:29:45;;;;;;;;;;;;;;;20.01;41.27;99431.31;2068587;28;1898;-68
2023/12/10 02:30:47;;;;;;;;;;;;;;;20.00;41.23;99435.59;2068333;28;6228;-68
2023/12/10 02:31:48;;;;;;;;;;;;;;;20.01;41.16;99430.56;2069195;28;1575;-68
2023/12/10 02:32:50;;;;;;;;;;;;;;;20.00;41.26;99426.97;2070313;28;2130;-68
2023/12/10 02:33:51;;;;;;;;;;;;;;;20.01;41.18;99439.19;2069837;28;1567;-68
2023/12/10 02:34:52;;;;;;;;;;;;;;;20.00;41.08;99438.47;2068126;28;1983;-68
2023/12/10 02:35:55;;;;;;;;;;;;;;;20.01;41.27;99444.94;2069959;28;2214;-68
2023/12/10 02:36:56;;;;;;;;;;;;;;;20.01;41.34;99439.91;2069702;28;1927;-68
2023/12/10 02:37:57;;;;;;;;;;;;;;;20.01;41.30;99434.16;2069114;28;2081;-68
2023/12/10 02:38:59;;;;;;;;;;;;;;;20.01;41.33;99433.44;2069994;28;2056;-68
2023/12/10 02:40:00;;;;;;;;;;;;;;;20.00;41.27;99432.72;2069623;28;1607;-68
2023/12/10 02:41:02;;;;;;;;;;;;;;;19.99;41.38;99431.25;2070489;28;2009;-68
2023/12/10 02:42:03;;;;;;;;;;;;;;;20.00;41.30;99426.97;2069890;28;1972;-68
2023/12/10 02:43:05;;;;;;;;;;;;;;;20.00;41.23;99426.97;2070975;28;1909;-68
2023/12/10 02:44:06;;;;;;;;;;;;;;;20.00;41.32;99434.88;2066925;28;1635;-68
2023/12/10 02:45:08;;;;;;;;;;;;;;;19.99;41.38;99431.25;2070794;28;1945;-68
2023/12/10 02:46:09;;;;;;;;;;;;;;;19.99;41.33;99437.00;2070626;28;2334;-68
2023/12/10 02:47:11;;;;;;;;;;;;;;;19.98;41.18;99429.78;2068931;28;1870;-68
2023/12/10 02:48:12;;;;;;;;;;;;;;;20.00;41.29;99438.47;2068657;28;1967;-68
2023/12/10 02:49:14;;;;;;;;;;;;;;;19.99;41.28;99427.66;2069584;28;1481;-68
2023/12/10 02:50:15;;;;;;;;;;;;;;;19.99;41.30;99431.25;2068897;28;1962;-68
2023/12/10 02:51:17;;;;;;;;;;;;;;;19.98;41.28;99432.66;2069534;28;1521;-68
2023/12/10 02:52:19;;;;;;;;;;;;;;;19.99;41.14;99430.53;2069646;28;1984;-68
2023/12/10 02:53:21;;;;;;;;;;;;;;;19.98;41.31;99435.53;2070004;28;1571;-68
2023/12/10 02:54:22;;;;;;;;;;;;;;;19.98;41.21;99438.41;2071256;28;1516;-68
2023/12/10 02:55:23;;;;;;;;;;;;;;;19.98;41.25;99434.81;2070160;28;2053;-67
2023/12/10 02:56:25;;;;;;;;;;;;;;;19.99;41.18;99436.25;2071067;28;2307;-68
2023/12/10 02:57:26;;;;;;;;;;;;;;;19.98;41.14;99437.69;2070906;28;1892;-68
2023/12/10 02:58:28;;;;;;;;;;;;;;;19.98;41.17;99443.44;2069548;28;1942;-68
2023/12/10 02:59:29;;;;;;;;;;;;;;;19.98;41.19;99437.69;2065641;28;1583;-68
2023/12/10 03:00:30;;;;;;;;;;;;;;;19.98;41.21;99444.16;2070642;28;6234;-68
2023/12/10 03:01:32;;;;;;;;;;;;;;;19.97;41.12;99445.56;2070843;28;2017;-68
2023/12/10 03:02:33;;;;;;;;;;;;;;;19.96;41.13;99444.09;2066969;28;1894;-68
2023/12/10 03:03:35;;;;;;;;;;;;;;;19.97;41.12;99448.44;2069418;28;1906;-68
2023/12/10 03:04:36;;;;;;;;;;;;;;;19.98;41.07;99458.53;2071047;28;1726;-67
2023/12/10 03:05:38;;;;;;;;;;;;;;;19.97;41.12;99457.03;2068516;28;2074;-68
2023/12/10 03:06:39;;;;;;;;;;;;;;;19.98;41.14;99460.66;2070206;28;1977;-68
2023/12/10 03:07:41;;;;;;;;;;;;;;;19.97;40.94;99456.31;2069437;28;2011;-68
2023/12/10 03:08:42;;;;;;;;;;;;;;;19.95;40.90;99454.16;2069457;28;2003;-68
2023/12/10 03:09:44;;;;;;;;;;;;;;;19.96;41.21;99458.47;2069810;28;2145;-70
2023/12/10 03:10:45;;;;;;;;;;;;;;;19.96;41.25;99464.22;2069453;28;1539;-68
2023/12/10 03:11:47;;;;;;;;;;;;;;;19.96;40.99;99464.22;2069542;28;2114;-72
2023/12/10 03:12:48;;;;;;;;;;;;;;;19.96;41.04;99467.09;2070218;28;1969;-70
2023/12/10 03:13:50;;;;;;;;;;;;;;;19.95;41.10;99468.50;2068407;28;1607;-69
2023/12/10 03:14:51;;;;;;;;;;;;;;;19.95;41.09;99476.38;2067616;28;1975;-69
2023/12/10 03:15:53;;;;;;;;;;;;;;;19.95;41.25;99471.38;2069207;28;2075;-69
2023/12/10 03:16:54;;;;;;;;;;;;;;;19.95;41.17;99477.13;2071037;28;1961;-69
2023/12/10 03:17:55;;;;;;;;;;;;;;;19.95;41.19;99468.50;2067612;28;1790;-69
2023/12/10 03:18:57;;;;;;;;;;;;;;;19.94;41.04;99469.91;2070019;28;1974;-69
2023/12/10 03:19:59;;;;;;;;;;;;;;;19.95;41.15;99470.63;2065290;28;1588;-69
2023/12/10 03:21:00;;;;;;;;;;;;;;;19.94;41.14;99478.53;2070612;28;1997;-69
2023/12/10 03:22:01;;;;;;;;;;;;;;;19.94;41.10;99475.66;2068675;28;2068;-69
2023/12/10 03:23:03;;;;;;;;;;;;;;;19.94;41.21;99480.66;2067022;28;2016;-69
2023/12/10 03:24:04;;;;;;;;;;;;;;;19.94;41.14;99487.16;2068767;28;1710;-69
2023/12/10 03:25:06;;;;;;;;;;;;;;;19.92;41.02;99481.34;2069501;28;1965;-69
2023/12/10 03:26:07;;;;;;;;;;;;;;;19.92;41.05;99487.09;2067077;28;2046;-69
2023/12/10 03:27:09;;;;;;;;;;;;;;;19.92;41.07;99492.84;2068773;28;1878;-69
2023/12/10 03:28:10;;;;;;;;;;;;;;;19.93;41.01;99490.69;2069728;28;1548;-69
2023/12/10 03:29:11;;;;;;;;;;;;;;;19.93;41.13;99491.44;2069921;28;1990;-69
2023/12/10 03:30:13;;;;;;;;;;;;;;;19.92;41.04;99487.09;2067910;28;6202;-69
2023/12/10 03:31:14;;;;;;;;;;;;;;;19.92;41.08;99483.50;2068704;28;1882;-69
2023/12/10 03:32:16;;;;;;;;;;;;;;;19.93;41.08;99482.06;2070307;28;1911;-69
2023/12/10 03:33:17;;;;;;;;;;;;;;;19.92;41.11;99489.97;2071226;28;1989;-69
2023/12/10 03:34:19;;;;;;;;;;;;;;;19.92;41.09;99489.97;2069348;28;1603;-69
2023/12/10 03:35:20;;;;;;;;;;;;;;;19.92;41.09;99484.22;2069436;28;2119;-69
2023/12/10 03:36:22;;;;;;;;;;;;;;;19.92;41.12;99483.50;2068932;28;2103;-69
2023/12/10 03:37:23;;;;;;;;;;;;;;;19.91;41.14;99488.50;2069462;28;1576;-69
2023/12/10 03:38:24;;;;;;;;;;;;;;;19.92;41.14;99483.50;2069863;28;1940;-69
2023/12/10 03:39:26;;;;;;;;;;;;;;;19.92;41.18;99475.59;2068021;28;1569;-69
2023/12/10 03:40:27;;;;;;;;;;;;;;;19.93;41.27;99484.94;2066931;28;1656;-69
2023/12/10 03:41:29;;;;;;;;;;;;;;;19.94;41.15;99490.03;2068428;28;1977;-69
2023/12/10 03:42:30;;;;;;;;;;;;;;;19.94;41.29;99492.88;2066443;28;1457;-69
2023/12/10 03:43:32;;;;;;;;;;;;;;;19.94;41.39;99487.16;2066944;28;1785;-70
2023/12/10 03:44:34;;;;;;;;;;;;;;;19.96;41.35;99487.19;2068773;28;1750;-69
2023/12/10 03:45:35;;;;;;;;;;;;;;;19.96;41.36;99487.19;2071070;28;2009;-69
2023/12/10 03:46:36;;;;;;;;;;;;;;;19.98;41.33;99492.28;2069979;28;2110;-69
2023/12/10 03:47:39;;;;;;;;;;;;;;;19.99;41.32;99499.47;2070242;28;1837;-69
2023/12/10 03:48:40;;;;;;;;;;;;;;;19.97;41.47;99499.41;2066591;28;1583;-69
2023/12/10 03:49:42;;;;;;;;;;;;;;;19.97;41.51;99497.28;2067403;28;1814;-68
2023/12/10 03:50:43;;;;;;;;;;;;;;;19.98;41.40;99495.88;2069423;28;1790;-69
2023/12/10 03:51:45;;;;;;;;;;;;;;;20.00;41.44;99498.81;2070604;28;1580;-69
2023/12/10 03:52:46;;;;;;;;;;;;;;;20.00;41.36;99498.81;2067756;28;1564;-69
2023/12/10 03:53:47;;;;;;;;;;;;;;;20.02;41.46;99507.47;2069343;28;1946;-69
2023/12/10 03:54:49;;;;;;;;;;;;;;;20.03;41.31;99506.06;2070942;28;1826;-69
2023/12/10 03:55:50;;;;;;;;;;;;;;;20.04;41.29;99501.78;2068277;28;1896;-69
2023/12/10 03:56:52;;;;;;;;;;;;;;;20.06;41.25;99504.69;2069274;28;2014;-69
2023/12/10 03:57:53;;;;;;;;;;;;;;;20.05;41.44;99496.78;2064326;28;1516;-69
2023/12/10 03:58:55;;;;;;;;;;;;;;;20.05;41.53;99491.03;2068367;28;1916;-69
2023/12/10 03:59:56;;;;;;;;;;;;;;;20.05;41.43;99503.25;2065486;28;1588;-69
2023/12/10 04:00:58;;;;;;;;;;;;;;;20.05;41.37;99497.50;2077126;28;6213;-69
2023/12/10 04:01:59;;;;;;;;;;;;;;;20.06;41.54;99510.44;2077974;28;1934;-69
2023/12/10 04:03:01;;;;;;;;;;;;;;;20.09;41.29;99511.97;2067700;28;1790;-69
2023/12/10 04:04:02;;;;;;;;;;;;;;;20.09;41.46;99514.13;2066070;28;1524;-69
2023/12/10 04:05:04;;;;;;;;;;;;;;;20.09;41.56;99508.38;2068519;28;1778;-69
2023/12/10 04:06:05;;;;;;;;;;;;;;;20.09;41.37;99497.59;2066527;28;1947;-69
2023/12/10 04:07:07;;;;;;;;;;;;;;;20.11;41.37;99499.06;2070324;28;2042;-70
2023/12/10 04:08:08;;;;;;;;;;;;;;;20.12;41.22;99500.53;2071476;28;1723;-69
2023/12/10 04:09:10;;;;;;;;;;;;;;;20.12;41.22;99517.78;2068539;28;1719;-69
2023/12/10 04:10:11;;;;;;;;;;;;;;;20.13;41.34;99507.72;2068422;28;1853;-69
2023/12/10 04:11:20;;;;;;;;;;;;;;;20.12;41.39;99509.16;2067553;28;1707;-70
2023/12/10 04:12:21;;;;;;;;;;;;;;;20.13;41.26;99502.72;2069607;28;1889;-69
2023/12/10 04:13:23;;;;;;;;;;;;;;;20.14;41.22;99504.19;2067271;28;1802;-69
2023/12/10 04:14:24;;;;;;;;;;;;;;;20.14;41.32;99512.09;2069983;28;1739;-69
2023/12/10 04:15:27;;;;;;;;;;;;;;;20.12;41.44;99518.50;2068739;28;2188;-68
2023/12/10 04:16:31;;;;;;;;;;;;;;;20.14;41.47;99515.69;2070280;28;2227;-69
2023/12/10 04:17:32;;;;;;;;;;;;;;;20.13;41.50;99516.34;2067871;28;1825;-69
2023/12/10 04:18:35;;;;;;;;;;;;;;;20.13;41.41;99514.19;2069158;28;1674;-69
2023/12/10 04:19:37;;;;;;;;;;;;;;;20.12;41.55;99514.91;2067088;28;1802;-69
2023/12/10 04:20:39;;;;;;;;;;;;;;;20.12;41.42;99523.53;2065899;28;1947;-69
2023/12/10 04:21:40;;;;;;;;;;;;;;;20.13;41.62;99522.09;2067056;28;1798;-69
2023/12/10 04:22:42;;;;;;;;;;;;;;;20.11;41.48;99516.31;2066402;28;1782;-69
2023/12/10 04:23:43;;;;;;;;;;;;;;;20.12;41.52;99529.28;2072212;28;1743;-69
2023/12/10 04:24:45;;;;;;;;;;;;;;;20.12;41.49;99518.50;2072909;28;1811;-69
2023/12/10 04:25:46;;;;;;;;;;;;;;;20.12;41.56;99529.28;2068248;28;1797;-69
2023/12/10 04:26:48;;;;;;;;;;;;;;;20.12;41.59;99523.53;2072100;28;1978;-69
2023/12/10 04:27:49;;;;;;;;;;;;;;;20.11;41.48;99519.91;2068328;28;1903;-69
2023/12/10 04:28:50;;;;;;;;;;;;;;;20.11;41.60;99522.03;2070173;28;1883;-69
2023/12/10 04:29:52;;;;;;;;;;;;;;;20.11;41.59;99516.31;2068176;28;1916;-69
2023/12/10 04:30:53;;;;;;;;;;;;;;;20.12;41.48;99529.28;2070005;28;5990;-69
2023/12/10 04:31:55;;;;;;;;;;;;;;;20.12;41.45;99524.25;2069508;28;1814;-69
2023/12/10 04:32:56;;;;;;;;;;;;;;;20.12;41.66;99527.13;2067424;28;1959;-69
2023/12/10 04:33:58;;;;;;;;;;;;;;;20.13;41.66;99527.84;2066987;28;1628;-69
2023/12/10 04:34:59;;;;;;;;;;;;;;;20.13;41.51;99531.44;2067583;28;1572;-69
2023/12/10 04:36:01;;;;;;;;;;;;;;;20.14;41.66;99523.56;2071263;28;1580;-69
2023/12/10 04:37:02;;;;;;;;;;;;;;;20.14;41.63;99514.97;2070870;28;2007;-68
2023/12/10 04:38:03;;;;;;;;;;;;;;;20.14;41.49;99527.19;2067715;28;1805;-69
2023/12/10 04:39:05;;;;;;;;;;;;;;;20.15;41.43;99527.91;2071201;28;1571;-69
2023/12/10 04:40:07;;;;;;;;;;;;;;;20.16;41.32;99523.59;2068863;28;1948;-69
2023/12/10 04:41:08;;;;;;;;;;;;;;;20.15;41.67;99527.91;2071127;28;1837;-69
2023/12/10 04:42:10;;;;;;;;;;;;;;;20.15;41.50;99525.75;2072243;28;1849;-69
2023/12/10 04:43:11;;;;;;;;;;;;;;;20.18;41.49;99526.53;2066898;28;1797;-70
2023/12/10 04:44:13;;;;;;;;;;;;;;;20.17;41.55;99531.56;2068943;28;1912;-69
2023/12/10 04:45:14;;;;;;;;;;;;;;;20.18;41.56;99532.28;2072253;28;2384;-69
2023/12/10 04:46:18;;;;;;;;;;;;;;;20.19;41.52;99533.75;2070445;28;1675;-69
2023/12/10 04:47:19;;;;;;;;;;;;;;;20.18;41.48;99532.28;2070696;28;1982;-69
2023/12/10 04:48:21;;;;;;;;;;;;;;;20.18;41.64;99538.03;2069625;28;1872;-69
2023/12/10 04:49:22;;;;;;;;;;;;;;;20.21;41.49;99542.44;2070081;28;1972;-69
2023/12/10 04:50:24;;;;;;;;;;;;;;;20.20;41.66;99538.84;2068127;28;1883;-69
2023/12/10 04:51:25;;;;;;;;;;;;;;;20.20;41.47;99541.72;2069095;28;1986;-70
2023/12/10 04:52:27;;;;;;;;;;;;;;;20.21;41.59;99542.44;2072473;28;1557;-69
2023/12/10 04:53:29;;;;;;;;;;;;;;;20.20;41.51;99547.47;2072256;28;1552;-69
2023/12/10 04:54:30;;;;;;;;;;;;;;;20.20;41.63;99535.22;2066768;28;1640;-69
2023/12/10 04:55:31;;;;;;;;;;;;;;;20.21;41.48;99533.81;2069932;28;1620;-69
2023/12/10 04:56:33;;;;;;;;;;;;;;;20.20;41.55;99547.47;2070297;28;1734;-69
2023/12/10 04:57:35;;;;;;;;;;;;;;;20.19;41.53;99534.50;2071839;28;1488;-69
2023/12/10 04:58:36;;;;;;;;;;;;;;;20.19;41.68;99540.25;2071304;28;1639;-69
2023/12/10 04:59:38;;;;;;;;;;;;;;;20.18;41.62;99541.66;2067962;28;1627;-70
2023/12/10 05:00:39;;;;;;;;;;;;;;;20.18;41.47;99541.66;2069521;28;6018;-69
2023/12/10 05:01:41;;;;;;;;;;;;;;;20.20;41.63;99540.97;2072813;28;2101;-69
2023/12/10 05:02:42;;;;;;;;;;;;;;;20.18;41.48;99543.78;2069396;28;1632;-69
2023/12/10 05:03:43;;;;;;;;;;;;;;;20.17;41.75;99542.34;2071801;28;1951;-70
2023/12/10 05:04:45;;;;;;;;;;;;;;;20.17;41.68;99542.34;2067723;28;1603;-69
2023/12/10 05:05:46;;;;;;;;;;;;;;;20.17;41.64;99553.81;2067294;28;1572;-69
2023/12/10 05:06:48;;;;;;;;;;;;;;;20.19;41.65;99551.00;2068867;28;1975;-69
2023/12/10 05:07:49;;;;;;;;;;;;;;;20.18;41.80;99555.28;2071208;28;1910;-69
2023/12/10 05:08:51;;;;;;;;;;;;;;;20.18;41.71;99555.28;2070204;28;1596;-68
2023/12/10 05:09:52;;;;;;;;;;;;;;;20.19;41.73;99553.88;2068461;28;1999;-69
2023/12/10 05:10:54;;;;;;;;;;;;;;;20.19;41.51;99556.75;2070896;28;1892;-69
2023/12/10 05:11:55;;;;;;;;;;;;;;;20.19;41.61;99556.75;2069515;28;1814;-69
2023/12/10 05:12:56;;;;;;;;;;;;;;;20.19;41.60;99562.50;2068659;28;1697;-69
2023/12/10 05:13:58;;;;;;;;;;;;;;;20.19;41.60;99560.34;2068148;28;1623;-69
2023/12/10 05:14:59;;;;;;;;;;;;;;;20.20;41.44;99570.47;2066989;28;1468;-69
2023/12/10 05:16:01;;;;;;;;;;;;;;;20.21;41.71;99562.56;2070078;28;1924;-69
2023/12/10 05:17:02;;;;;;;;;;;;;;;20.21;41.63;99566.16;2068758;28;1986;-69
2023/12/10 05:18:04;;;;;;;;;;;;;;;20.21;41.64;99566.16;2070456;28;2105;-69
2023/12/10 05:19:05;;;;;;;;;;;;;;;20.22;41.77;99570.47;2070960;28;1671;-69
2023/12/10 05:20:07;;;;;;;;;;;;;;;20.22;41.71;99569.75;2069479;28;2053;-69
2023/12/10 05:21:09;;;;;;;;;;;;;;;20.21;41.62;99571.91;2072068;28;2110;-69
2023/12/10 05:22:10;;;;;;;;;;;;;;;20.22;41.74;99566.88;2071702;28;1631;-69
2023/12/10 05:23:12;;;;;;;;;;;;;;;20.21;41.82;99562.56;2070303;28;1833;-69
2023/12/10 05:24:13;;;;;;;;;;;;;;;20.24;41.72;99569.81;2072035;28;2061;-69
2023/12/10 05:25:14;;;;;;;;;;;;;;;20.23;41.65;99563.34;2069043;28;1986;-69
2023/12/10 05:26:16;;;;;;;;;;;;;;;20.22;41.73;99567.63;2071246;28;2363;-69